sensor_id;sensor_type;location;lat;lon;timestamp;P1;durP1;ratioP1;P2;durP2;ratioP2
59790;SDS011;47431;51.640;5.554;2022-08-04T00:00:29;20.27;;;8.20;;
59790;SDS011;47431;51.640;5.554;2022-08-04T00:02:58;13.77;;;7.90;;
59790;SDS011;47431;51.640;5.554;2022-08-04T00:06:13;10.65;;;8.63;;
59790;SDS011;47431;51.640;5.554;2022-08-04T00:08:21;9.95;;;8.02;;
59790;SDS011;47431;51.640;5.554;2022-08-04T00:10:51;17.08;;;8.82;;
59790;SDS011;47431;51.640;5.554;2022-08-04T00:13:21;17.40;;;9.07;;
59790;SDS011;47431;51.640;5.554;2022-08-04T00:15:49;13.80;;;8.52;;
59790;SDS011;47431;51.640;5.554;2022-08-04T00:18:15;15.35;;;9.60;;
59790;SDS011;47431;51.640;5.554;2022-08-04T00:20:43;19.35;;;10.23;;
59790;SDS011;47431;51.640;5.554;2022-08-04T00:23:08;17.60;;;9.95;;
59790;SDS011;47431;51.640;5.554;2022-08-04T00:25:38;14.98;;;10.13;;
59790;SDS011;47431;51.640;5.554;2022-08-04T00:28:04;16.85;;;9.43;;
59790;SDS011;47431;51.640;5.554;2022-08-04T00:30:30;18.17;;;9.52;;
59790;SDS011;47431;51.640;5.554;2022-08-04T00:32:55;17.52;;;9.80;;
59790;SDS011;47431;51.640;5.554;2022-08-04T00:35:21;17.00;;;10.45;;
59790;SDS011;47431;51.640;5.554;2022-08-04T00:37:47;13.88;;;9.07;;
59790;SDS011;47431;51.640;5.554;2022-08-04T00:40:20;12.38;;;9.45;;
59790;SDS011;47431;51.640;5.554;2022-08-04T00:42:47;14.27;;;9.38;;
59790;SDS011;47431;51.640;5.554;2022-08-04T00:48:01;17.80;;;11.48;;
59790;SDS011;47431;51.640;5.554;2022-08-04T00:53:23;16.48;;;10.05;;
59790;SDS011;47431;51.640;5.554;2022-08-04T00:58:31;17.88;;;10.57;;
59790;SDS011;47431;51.640;5.554;2022-08-04T01:01:03;17.98;;;10.02;;
59790;SDS011;47431;51.640;5.554;2022-08-04T01:03:39;19.25;;;10.93;;
59790;SDS011;47431;51.640;5.554;2022-08-04T01:06:23;17.98;;;10.38;;
59790;SDS011;47431;51.640;5.554;2022-08-04T01:08:56;19.17;;;11.50;;
59790;SDS011;47431;51.640;5.554;2022-08-04T01:11:34;17.77;;;10.85;;
59790;SDS011;47431;51.640;5.554;2022-08-04T01:14:23;13.47;;;10.80;;
59790;SDS011;47431;51.640;5.554;2022-08-04T01:16:54;21.17;;;10.48;;
59790;SDS011;47431;51.640;5.554;2022-08-04T01:29:44;18.33;;;9.90;;
59790;SDS011;47431;51.640;5.554;2022-08-04T01:32:19;17.27;;;10.43;;
59790;SDS011;47431;51.640;5.554;2022-08-04T01:34:50;19.58;;;9.35;;
59790;SDS011;47431;51.640;5.554;2022-08-04T01:37:20;16.27;;;10.68;;
59790;SDS011;47431;51.640;5.554;2022-08-04T01:39:54;14.57;;;10.37;;
59790;SDS011;47431;51.640;5.554;2022-08-04T01:42:21;19.92;;;10.48;;
59790;SDS011;47431;51.640;5.554;2022-08-04T01:44:50;16.38;;;9.95;;
59790;SDS011;47431;51.640;5.554;2022-08-04T01:47:16;14.93;;;9.52;;
59790;SDS011;47431;51.640;5.554;2022-08-04T01:49:41;16.55;;;9.85;;
59790;SDS011;47431;51.640;5.554;2022-08-04T01:52:09;13.75;;;9.70;;
59790;SDS011;47431;51.640;5.554;2022-08-04T01:54:36;11.77;;;8.68;;
59790;SDS011;47431;51.640;5.554;2022-08-04T01:57:01;14.98;;;9.32;;
59790;SDS011;47431;51.640;5.554;2022-08-04T01:59:28;11.68;;;8.90;;
59790;SDS011;47431;51.640;5.554;2022-08-04T02:01:55;18.23;;;8.55;;
59790;SDS011;47431;51.640;5.554;2022-08-04T02:04:20;20.55;;;8.85;;
59790;SDS011;47431;51.640;5.554;2022-08-04T02:06:51;12.23;;;8.75;;
59790;SDS011;47431;51.640;5.554;2022-08-04T02:09:21;15.80;;;8.73;;
59790;SDS011;47431;51.640;5.554;2022-08-04T02:12:12;15.82;;;8.32;;
59790;SDS011;47431;51.640;5.554;2022-08-04T02:14:37;12.25;;;8.15;;
59790;SDS011;47431;51.640;5.554;2022-08-04T02:17:29;17.75;;;8.43;;
59790;SDS011;47431;51.640;5.554;2022-08-04T02:22:17;18.15;;;8.10;;
59790;SDS011;47431;51.640;5.554;2022-08-04T02:24:45;18.70;;;8.35;;
59790;SDS011;47431;51.640;5.554;2022-08-04T02:27:12;11.27;;;7.07;;
59790;SDS011;47431;51.640;5.554;2022-08-04T02:29:46;14.70;;;8.27;;
59790;SDS011;47431;51.640;5.554;2022-08-04T02:32:19;14.23;;;7.88;;
59790;SDS011;47431;51.640;5.554;2022-08-04T02:37:30;11.77;;;7.32;;
59790;SDS011;47431;51.640;5.554;2022-08-04T02:39:56;12.77;;;6.90;;
59790;SDS011;47431;51.640;5.554;2022-08-04T02:42:22;15.43;;;6.47;;
59790;SDS011;47431;51.640;5.554;2022-08-04T02:44:49;11.50;;;6.47;;
59790;SDS011;47431;51.640;5.554;2022-08-04T02:47:15;10.48;;;6.20;;
59790;SDS011;47431;51.640;5.554;2022-08-04T02:49:41;17.23;;;6.93;;
59790;SDS011;47431;51.640;5.554;2022-08-04T02:52:08;12.80;;;6.20;;
59790;SDS011;47431;51.640;5.554;2022-08-04T02:54:36;16.23;;;6.57;;
59790;SDS011;47431;51.640;5.554;2022-08-04T02:57:02;14.48;;;5.93;;
59790;SDS011;47431;51.640;5.554;2022-08-04T02:59:35;13.35;;;7.03;;
59790;SDS011;47431;51.640;5.554;2022-08-04T03:02:02;12.80;;;8.18;;
59790;SDS011;47431;51.640;5.554;2022-08-04T03:04:39;14.20;;;6.65;;
59790;SDS011;47431;51.640;5.554;2022-08-04T03:18:00;13.77;;;6.60;;
59790;SDS011;47431;51.640;5.554;2022-08-04T03:22:41;19.88;;;6.88;;
59790;SDS011;47431;51.640;5.554;2022-08-04T03:30:19;15.20;;;6.20;;
59790;SDS011;47431;51.640;5.554;2022-08-04T03:35:15;14.13;;;6.90;;
59790;SDS011;47431;51.640;5.554;2022-08-04T03:40:25;24.10;;;8.32;;
59790;SDS011;47431;51.640;5.554;2022-08-04T03:43:02;17.05;;;8.25;;
59790;SDS011;47431;51.640;5.554;2022-08-04T03:48:08;23.10;;;7.93;;
59790;SDS011;47431;51.640;5.554;2022-08-04T03:58:14;21.90;;;7.80;;
59790;SDS011;47431;51.640;5.554;2022-08-04T04:00:59;19.40;;;8.50;;
59790;SDS011;47431;51.640;5.554;2022-08-04T04:08:53;20.35;;;8.77;;
59790;SDS011;47431;51.640;5.554;2022-08-04T04:11:47;15.32;;;8.73;;
59790;SDS011;47431;51.640;5.554;2022-08-04T04:17:03;14.27;;;8.77;;
59790;SDS011;47431;51.640;5.554;2022-08-04T04:19:35;14.30;;;8.00;;
59790;SDS011;47431;51.640;5.554;2022-08-04T04:24:39;20.45;;;8.45;;
59790;SDS011;47431;51.640;5.554;2022-08-04T04:32:27;16.20;;;8.23;;
59790;SDS011;47431;51.640;5.554;2022-08-04T04:37:36;18.75;;;7.82;;
59790;SDS011;47431;51.640;5.554;2022-08-04T04:42:56;16.55;;;6.93;;
59790;SDS011;47431;51.640;5.554;2022-08-04T04:45:29;22.33;;;8.82;;
59790;SDS011;47431;51.640;5.554;2022-08-04T04:50:36;18.23;;;8.70;;
59790;SDS011;47431;51.640;5.554;2022-08-04T04:53:06;25.25;;;8.52;;
59790;SDS011;47431;51.640;5.554;2022-08-04T04:55:34;19.30;;;7.72;;
59790;SDS011;47431;51.640;5.554;2022-08-04T04:58:03;17.85;;;10.02;;
59790;SDS011;47431;51.640;5.554;2022-08-04T05:00:33;17.65;;;9.13;;
59790;SDS011;47431;51.640;5.554;2022-08-04T05:05:54;17.98;;;8.40;;
59790;SDS011;47431;51.640;5.554;2022-08-04T05:08:25;17.95;;;10.40;;
59790;SDS011;47431;51.640;5.554;2022-08-04T05:15:51;12.77;;;7.38;;
59790;SDS011;47431;51.640;5.554;2022-08-04T05:18:21;22.00;;;9.52;;
59790;SDS011;47431;51.640;5.554;2022-08-04T05:20:54;21.15;;;10.63;;
59790;SDS011;47431;51.640;5.554;2022-08-04T05:23:22;21.33;;;10.38;;
59790;SDS011;47431;51.640;5.554;2022-08-04T05:25:56;23.48;;;11.10;;
59790;SDS011;47431;51.640;5.554;2022-08-04T05:33:41;20.63;;;9.10;;
59790;SDS011;47431;51.640;5.554;2022-08-04T05:36:09;16.42;;;9.88;;
59790;SDS011;47431;51.640;5.554;2022-08-04T05:38:36;15.45;;;11.07;;
59790;SDS011;47431;51.640;5.554;2022-08-04T05:41:01;21.52;;;10.38;;
59790;SDS011;47431;51.640;5.554;2022-08-04T05:43:27;21.35;;;11.73;;
59790;SDS011;47431;51.640;5.554;2022-08-04T05:45:52;16.40;;;10.77;;
59790;SDS011;47431;51.640;5.554;2022-08-04T05:48:18;21.27;;;10.43;;
59790;SDS011;47431;51.640;5.554;2022-08-04T05:50:46;20.77;;;10.90;;
59790;SDS011;47431;51.640;5.554;2022-08-04T05:53:12;21.88;;;11.75;;
59790;SDS011;47431;51.640;5.554;2022-08-04T05:55:38;21.58;;;10.70;;
59790;SDS011;47431;51.640;5.554;2022-08-04T05:58:03;17.90;;;11.43;;
59790;SDS011;47431;51.640;5.554;2022-08-04T06:00:29;21.27;;;12.90;;
59790;SDS011;47431;51.640;5.554;2022-08-04T06:02:55;21.85;;;13.55;;
59790;SDS011;47431;51.640;5.554;2022-08-04T06:05:21;21.77;;;14.65;;
59790;SDS011;47431;51.640;5.554;2022-08-04T06:07:47;21.95;;;14.23;;
59790;SDS011;47431;51.640;5.554;2022-08-04T06:10:13;20.42;;;13.73;;
59790;SDS011;47431;51.640;5.554;2022-08-04T06:15:03;25.10;;;14.55;;
59790;SDS011;47431;51.640;5.554;2022-08-04T06:17:32;24.95;;;13.98;;
59790;SDS011;47431;51.640;5.554;2022-08-04T06:19:57;26.27;;;14.50;;
59790;SDS011;47431;51.640;5.554;2022-08-04T06:22:25;22.33;;;13.48;;
59790;SDS011;47431;51.640;5.554;2022-08-04T06:24:51;40.28;;;15.40;;
59790;SDS011;47431;51.640;5.554;2022-08-04T06:27:19;32.15;;;15.65;;
59790;SDS011;47431;51.640;5.554;2022-08-04T06:29:45;32.72;;;15.05;;
59790;SDS011;47431;51.640;5.554;2022-08-04T06:32:11;28.80;;;14.77;;
59790;SDS011;47431;51.640;5.554;2022-08-04T06:34:57;20.88;;;13.38;;
59790;SDS011;47431;51.640;5.554;2022-08-04T06:37:24;21.75;;;14.48;;
59790;SDS011;47431;51.640;5.554;2022-08-04T06:39:50;20.63;;;13.63;;
59790;SDS011;47431;51.640;5.554;2022-08-04T06:42:16;25.17;;;12.88;;
59790;SDS011;47431;51.640;5.554;2022-08-04T06:44:41;29.45;;;14.82;;
59790;SDS011;47431;51.640;5.554;2022-08-04T06:47:08;36.72;;;14.00;;
59790;SDS011;47431;51.640;5.554;2022-08-04T06:49:34;25.50;;;14.38;;
59790;SDS011;47431;51.640;5.554;2022-08-04T06:52:01;20.58;;;12.85;;
59790;SDS011;47431;51.640;5.554;2022-08-04T06:54:27;16.00;;;9.15;;
59790;SDS011;47431;51.640;5.554;2022-08-04T06:56:52;17.52;;;10.68;;
59790;SDS011;47431;51.640;5.554;2022-08-04T06:59:18;15.88;;;9.18;;
59790;SDS011;47431;51.640;5.554;2022-08-04T07:01:46;21.02;;;10.00;;
59790;SDS011;47431;51.640;5.554;2022-08-04T07:04:11;30.83;;;10.60;;
59790;SDS011;47431;51.640;5.554;2022-08-04T07:06:37;32.33;;;9.40;;
59790;SDS011;47431;51.640;5.554;2022-08-04T07:09:02;24.83;;;9.27;;
59790;SDS011;47431;51.640;5.554;2022-08-04T07:11:29;27.80;;;11.50;;
59790;SDS011;47431;51.640;5.554;2022-08-04T07:13:54;24.70;;;11.15;;
59790;SDS011;47431;51.640;5.554;2022-08-04T07:16:21;20.83;;;14.93;;
59790;SDS011;47431;51.640;5.554;2022-08-04T07:18:47;28.60;;;15.85;;
59790;SDS011;47431;51.640;5.554;2022-08-04T07:21:21;18.40;;;13.95;;
59790;SDS011;47431;51.640;5.554;2022-08-04T07:23:47;29.00;;;16.00;;
59790;SDS011;47431;51.640;5.554;2022-08-04T07:26:13;20.52;;;14.50;;
59790;SDS011;47431;51.640;5.554;2022-08-04T07:28:40;22.40;;;13.98;;
59790;SDS011;47431;51.640;5.554;2022-08-04T07:31:06;25.80;;;13.27;;
59790;SDS011;47431;51.640;5.554;2022-08-04T07:33:33;15.70;;;11.35;;
59790;SDS011;47431;51.640;5.554;2022-08-04T07:35:58;22.17;;;12.57;;
59790;SDS011;47431;51.640;5.554;2022-08-04T07:38:24;22.63;;;13.20;;
59790;SDS011;47431;51.640;5.554;2022-08-04T07:40:49;17.83;;;12.17;;
59790;SDS011;47431;51.640;5.554;2022-08-04T07:43:14;26.03;;;12.27;;
59790;SDS011;47431;51.640;5.554;2022-08-04T07:45:40;19.77;;;12.25;;
59790;SDS011;47431;51.640;5.554;2022-08-04T07:48:05;18.35;;;12.50;;
59790;SDS011;47431;51.640;5.554;2022-08-04T07:50:31;19.65;;;12.60;;
59790;SDS011;47431;51.640;5.554;2022-08-04T07:52:57;20.05;;;13.15;;
59790;SDS011;47431;51.640;5.554;2022-08-04T07:55:22;18.77;;;13.93;;
59790;SDS011;47431;51.640;5.554;2022-08-04T07:57:48;18.67;;;11.85;;
59790;SDS011;47431;51.640;5.554;2022-08-04T08:00:13;15.68;;;13.38;;
59790;SDS011;47431;51.640;5.554;2022-08-04T08:02:42;20.35;;;12.80;;
59790;SDS011;47431;51.640;5.554;2022-08-04T08:05:08;22.33;;;14.50;;
59790;SDS011;47431;51.640;5.554;2022-08-04T08:07:34;18.92;;;13.35;;
59790;SDS011;47431;51.640;5.554;2022-08-04T08:09:59;16.80;;;13.13;;
59790;SDS011;47431;51.640;5.554;2022-08-04T08:12:24;20.53;;;12.00;;
59790;SDS011;47431;51.640;5.554;2022-08-04T08:14:50;18.35;;;11.10;;
59790;SDS011;47431;51.640;5.554;2022-08-04T08:17:15;19.00;;;12.13;;
59790;SDS011;47431;51.640;5.554;2022-08-04T08:19:41;18.05;;;11.98;;
59790;SDS011;47431;51.640;5.554;2022-08-04T08:22:06;19.50;;;11.07;;
59790;SDS011;47431;51.640;5.554;2022-08-04T08:24:34;16.30;;;10.73;;
59790;SDS011;47431;51.640;5.554;2022-08-04T08:27:00;21.55;;;10.43;;
59790;SDS011;47431;51.640;5.554;2022-08-04T08:29:25;15.32;;;9.20;;
59790;SDS011;47431;51.640;5.554;2022-08-04T08:31:51;14.68;;;8.68;;
59790;SDS011;47431;51.640;5.554;2022-08-04T08:34:16;15.60;;;8.95;;
59790;SDS011;47431;51.640;5.554;2022-08-04T08:36:51;16.48;;;7.78;;
59790;SDS011;47431;51.640;5.554;2022-08-04T08:39:20;11.43;;;8.15;;
59790;SDS011;47431;51.640;5.554;2022-08-04T09:06:49;14.73;;;4.22;;
59790;SDS011;47431;51.640;5.554;2022-08-04T09:09:39;9.45;;;4.07;;
59790;SDS011;47431;51.640;5.554;2022-08-04T09:14:50;12.32;;;4.65;;
59790;SDS011;47431;51.640;5.554;2022-08-04T09:17:31;9.40;;;3.80;;
59790;SDS011;47431;51.640;5.554;2022-08-04T09:20:02;6.85;;;2.97;;
59790;SDS011;47431;51.640;5.554;2022-08-04T09:22:35;11.40;;;3.58;;
59790;SDS011;47431;51.640;5.554;2022-08-04T09:30:00;9.80;;;3.13;;
59790;SDS011;47431;51.640;5.554;2022-08-04T09:35:02;10.07;;;2.87;;
59790;SDS011;47431;51.640;5.554;2022-08-04T09:40:19;13.18;;;3.88;;
59790;SDS011;47431;51.640;5.554;2022-08-04T09:45:46;7.60;;;2.85;;
59790;SDS011;47431;51.640;5.554;2022-08-04T09:48:14;12.10;;;3.60;;
59790;SDS011;47431;51.640;5.554;2022-08-04T09:50:41;10.15;;;2.38;;
59790;SDS011;47431;51.640;5.554;2022-08-04T09:56:02;11.18;;;2.92;;
59790;SDS011;47431;51.640;5.554;2022-08-04T10:01:13;13.05;;;3.10;;
59790;SDS011;47431;51.640;5.554;2022-08-04T10:03:42;6.90;;;2.17;;
59790;SDS011;47431;51.640;5.554;2022-08-04T10:06:18;8.10;;;2.53;;
59790;SDS011;47431;51.640;5.554;2022-08-04T10:08:54;9.63;;;2.67;;
59790;SDS011;47431;51.640;5.554;2022-08-04T10:11:23;11.05;;;3.53;;
59790;SDS011;47431;51.640;5.554;2022-08-04T10:16:34;14.07;;;2.80;;
59790;SDS011;47431;51.640;5.554;2022-08-04T10:19:06;6.18;;;2.65;;
59790;SDS011;47431;51.640;5.554;2022-08-04T10:21:41;9.48;;;3.17;;
59790;SDS011;47431;51.640;5.554;2022-08-04T10:29:17;8.38;;;3.30;;
59790;SDS011;47431;51.640;5.554;2022-08-04T10:34:28;11.48;;;3.42;;
59790;SDS011;47431;51.640;5.554;2022-08-04T10:37:07;7.20;;;2.80;;
59790;SDS011;47431;51.640;5.554;2022-08-04T10:39:51;11.68;;;3.80;;
59790;SDS011;47431;51.640;5.554;2022-08-04T10:42:36;13.30;;;4.72;;
59790;SDS011;47431;51.640;5.554;2022-08-04T10:47:29;12.40;;;4.60;;
59790;SDS011;47431;51.640;5.554;2022-08-04T10:50:00;16.35;;;6.35;;
59790;SDS011;47431;51.640;5.554;2022-08-04T10:52:32;14.02;;;4.97;;
59790;SDS011;47431;51.640;5.554;2022-08-04T10:55:04;9.55;;;4.93;;
59790;SDS011;47431;51.640;5.554;2022-08-04T10:57:41;10.18;;;5.07;;
59790;SDS011;47431;51.640;5.554;2022-08-04T11:00:17;14.48;;;5.20;;
59790;SDS011;47431;51.640;5.554;2022-08-04T11:02:45;8.90;;;5.32;;
59790;SDS011;47431;51.640;5.554;2022-08-04T11:07:46;10.25;;;7.43;;
59790;SDS011;47431;51.640;5.554;2022-08-04T11:10:14;12.18;;;7.88;;
59790;SDS011;47431;51.640;5.554;2022-08-04T11:12:41;12.07;;;7.45;;
59790;SDS011;47431;51.640;5.554;2022-08-04T11:17:46;15.60;;;7.90;;
59790;SDS011;47431;51.640;5.554;2022-08-04T11:23:02;14.52;;;9.65;;
59790;SDS011;47431;51.640;5.554;2022-08-04T11:25:32;15.60;;;7.72;;
59790;SDS011;47431;51.640;5.554;2022-08-04T11:33:08;16.05;;;8.90;;
59790;SDS011;47431;51.640;5.554;2022-08-04T11:35:37;17.55;;;8.70;;
59790;SDS011;47431;51.640;5.554;2022-08-04T11:38:05;18.20;;;10.32;;
59790;SDS011;47431;51.640;5.554;2022-08-04T11:40:35;13.77;;;8.50;;
59790;SDS011;47431;51.640;5.554;2022-08-04T11:43:07;16.55;;;9.57;;
59790;SDS011;47431;51.640;5.554;2022-08-04T11:48:00;12.13;;;6.50;;
59790;SDS011;47431;51.640;5.554;2022-08-04T11:50:36;14.57;;;6.53;;
59790;SDS011;47431;51.640;5.554;2022-08-04T11:53:05;10.27;;;5.50;;
59790;SDS011;47431;51.640;5.554;2022-08-04T11:55:31;17.58;;;5.50;;
59790;SDS011;47431;51.640;5.554;2022-08-04T11:57:57;8.13;;;3.92;;
59790;SDS011;47431;51.640;5.554;2022-08-04T12:00:24;10.10;;;4.40;;
59790;SDS011;47431;51.640;5.554;2022-08-04T12:03:00;10.00;;;4.38;;
59790;SDS011;47431;51.640;5.554;2022-08-04T12:05:30;12.88;;;5.20;;
59790;SDS011;47431;51.640;5.554;2022-08-04T12:10:25;10.80;;;3.97;;
59790;SDS011;47431;51.640;5.554;2022-08-04T12:15:36;9.38;;;4.72;;
59790;SDS011;47431;51.640;5.554;2022-08-04T12:18:09;7.95;;;4.57;;
59790;SDS011;47431;51.640;5.554;2022-08-04T12:20:42;17.63;;;4.47;;
59790;SDS011;47431;51.640;5.554;2022-08-04T12:23:11;9.43;;;4.85;;
59790;SDS011;47431;51.640;5.554;2022-08-04T12:25:39;12.63;;;4.60;;
59790;SDS011;47431;51.640;5.554;2022-08-04T12:28:07;14.40;;;5.30;;
59790;SDS011;47431;51.640;5.554;2022-08-04T12:30:36;17.50;;;4.47;;
59790;SDS011;47431;51.640;5.554;2022-08-04T12:33:11;9.25;;;4.47;;
59790;SDS011;47431;51.640;5.554;2022-08-04T12:35:42;13.52;;;5.03;;
59790;SDS011;47431;51.640;5.554;2022-08-04T12:38:11;11.52;;;5.82;;
59790;SDS011;47431;51.640;5.554;2022-08-04T12:40:39;9.27;;;5.43;;
59790;SDS011;47431;51.640;5.554;2022-08-04T12:43:09;9.43;;;5.97;;
59790;SDS011;47431;51.640;5.554;2022-08-04T12:45:35;11.60;;;6.40;;
59790;SDS011;47431;51.640;5.554;2022-08-04T12:48:05;10.35;;;6.65;;
59790;SDS011;47431;51.640;5.554;2022-08-04T12:50:31;10.52;;;6.35;;
59790;SDS011;47431;51.640;5.554;2022-08-04T12:52:57;10.38;;;5.90;;
59790;SDS011;47431;51.640;5.554;2022-08-04T12:55:24;9.73;;;5.53;;
59790;SDS011;47431;51.640;5.554;2022-08-04T12:57:50;9.85;;;5.80;;
59790;SDS011;47431;51.640;5.554;2022-08-04T13:00:37;7.65;;;6.68;;
59790;SDS011;47431;51.640;5.554;2022-08-04T13:03:04;12.30;;;5.45;;
59790;SDS011;47431;51.640;5.554;2022-08-04T13:05:30;8.45;;;4.93;;
59790;SDS011;47431;51.640;5.554;2022-08-04T13:07:57;9.90;;;5.25;;
59790;SDS011;47431;51.640;5.554;2022-08-04T13:10:23;9.13;;;5.72;;
59790;SDS011;47431;51.640;5.554;2022-08-04T13:12:54;8.38;;;4.47;;
59790;SDS011;47431;51.640;5.554;2022-08-04T13:15:20;9.50;;;4.03;;
59790;SDS011;47431;51.640;5.554;2022-08-04T13:20:11;8.27;;;4.20;;
59790;SDS011;47431;51.640;5.554;2022-08-04T13:22:36;9.07;;;4.23;;
59790;SDS011;47431;51.640;5.554;2022-08-04T13:25:02;13.43;;;4.72;;
59790;SDS011;47431;51.640;5.554;2022-08-04T13:27:27;6.55;;;4.13;;
59790;SDS011;47431;51.640;5.554;2022-08-04T13:29:54;8.50;;;4.03;;
59790;SDS011;47431;51.640;5.554;2022-08-04T13:32:20;8.82;;;3.80;;
59790;SDS011;47431;51.640;5.554;2022-08-04T13:34:47;8.65;;;3.92;;
59790;SDS011;47431;51.640;5.554;2022-08-04T13:37:13;7.75;;;4.32;;
59790;SDS011;47431;51.640;5.554;2022-08-04T13:39:43;7.63;;;4.45;;
59790;SDS011;47431;51.640;5.554;2022-08-04T13:42:09;7.45;;;3.28;;
59790;SDS011;47431;51.640;5.554;2022-08-04T13:44:36;12.40;;;3.83;;
59790;SDS011;47431;51.640;5.554;2022-08-04T13:47:06;7.57;;;4.18;;
59790;SDS011;47431;51.640;5.554;2022-08-04T13:49:31;21.65;;;4.60;;
59790;SDS011;47431;51.640;5.554;2022-08-04T13:52:04;8.30;;;3.75;;
59790;SDS011;47431;51.640;5.554;2022-08-04T13:57:00;10.98;;;3.33;;
59790;SDS011;47431;51.640;5.554;2022-08-04T13:59:26;8.35;;;3.22;;
59790;SDS011;47431;51.640;5.554;2022-08-04T14:02:00;7.40;;;3.75;;
59790;SDS011;47431;51.640;5.554;2022-08-04T14:04:27;7.88;;;3.88;;
59790;SDS011;47431;51.640;5.554;2022-08-04T14:06:54;7.97;;;3.75;;
59790;SDS011;47431;51.640;5.554;2022-08-04T14:09:23;8.10;;;3.35;;
59790;SDS011;47431;51.640;5.554;2022-08-04T14:11:49;12.00;;;4.05;;
59790;SDS011;47431;51.640;5.554;2022-08-04T14:14:22;9.85;;;4.13;;
59790;SDS011;47431;51.640;5.554;2022-08-04T14:21:44;9.02;;;3.15;;
59790;SDS011;47431;51.640;5.554;2022-08-04T14:24:09;6.97;;;3.28;;
59790;SDS011;47431;51.640;5.554;2022-08-04T14:26:34;6.30;;;3.73;;
59790;SDS011;47431;51.640;5.554;2022-08-04T14:29:14;8.15;;;3.67;;
59790;SDS011;47431;51.640;5.554;2022-08-04T14:31:40;6.47;;;2.80;;
59790;SDS011;47431;51.640;5.554;2022-08-04T14:34:05;7.07;;;3.53;;
59790;SDS011;47431;51.640;5.554;2022-08-04T14:36:37;12.38;;;4.07;;
59790;SDS011;47431;51.640;5.554;2022-08-04T14:39:03;6.32;;;3.42;;
59790;SDS011;47431;51.640;5.554;2022-08-04T14:41:30;7.88;;;2.95;;
59790;SDS011;47431;51.640;5.554;2022-08-04T14:44:07;13.90;;;4.38;;
59790;SDS011;47431;51.640;5.554;2022-08-04T14:46:32;7.03;;;3.30;;
59790;SDS011;47431;51.640;5.554;2022-08-04T14:48:59;13.13;;;3.47;;
59790;SDS011;47431;51.640;5.554;2022-08-04T14:51:24;7.72;;;3.17;;
59790;SDS011;47431;51.640;5.554;2022-08-04T14:53:49;14.73;;;3.90;;
59790;SDS011;47431;51.640;5.554;2022-08-04T14:56:15;7.70;;;3.07;;
59790;SDS011;47431;51.640;5.554;2022-08-04T14:58:40;11.77;;;2.80;;
59790;SDS011;47431;51.640;5.554;2022-08-04T15:01:08;6.10;;;3.13;;
59790;SDS011;47431;51.640;5.554;2022-08-04T15:03:34;6.63;;;2.10;;
59790;SDS011;47431;51.640;5.554;2022-08-04T15:06:03;5.78;;;2.45;;
59790;SDS011;47431;51.640;5.554;2022-08-04T15:08:28;10.82;;;2.30;;
59790;SDS011;47431;51.640;5.554;2022-08-04T15:10:54;7.20;;;3.63;;
59790;SDS011;47431;51.640;5.554;2022-08-04T15:13:23;8.38;;;3.10;;
59790;SDS011;47431;51.640;5.554;2022-08-04T15:15:48;12.65;;;2.55;;
59790;SDS011;47431;51.640;5.554;2022-08-04T15:18:13;15.67;;;3.43;;
59790;SDS011;47431;51.640;5.554;2022-08-04T15:20:38;33.63;;;4.93;;
59790;SDS011;47431;51.640;5.554;2022-08-04T15:23:06;9.25;;;2.92;;
59790;SDS011;47431;51.640;5.554;2022-08-04T15:25:32;10.95;;;2.90;;
59790;SDS011;47431;51.640;5.554;2022-08-04T15:27:57;9.43;;;3.20;;
59790;SDS011;47431;51.640;5.554;2022-08-04T15:30:23;7.05;;;2.97;;
59790;SDS011;47431;51.640;5.554;2022-08-04T15:32:50;6.50;;;2.63;;
59790;SDS011;47431;51.640;5.554;2022-08-04T15:35:19;5.30;;;2.58;;
59790;SDS011;47431;51.640;5.554;2022-08-04T15:42:48;7.15;;;3.38;;
59790;SDS011;47431;51.640;5.554;2022-08-04T15:45:23;8.48;;;3.53;;
59790;SDS011;47431;51.640;5.554;2022-08-04T15:48:31;6.95;;;3.17;;
59790;SDS011;47431;51.640;5.554;2022-08-04T15:53:24;12.15;;;3.47;;
59790;SDS011;47431;51.640;5.554;2022-08-04T15:55:49;6.35;;;3.58;;
59790;SDS011;47431;51.640;5.554;2022-08-04T15:58:16;6.28;;;3.33;;
59790;SDS011;47431;51.640;5.554;2022-08-04T16:05:57;11.48;;;3.20;;
59790;SDS011;47431;51.640;5.554;2022-08-04T16:08:22;7.57;;;3.35;;
59790;SDS011;47431;51.640;5.554;2022-08-04T16:10:48;7.30;;;3.05;;
59790;SDS011;47431;51.640;5.554;2022-08-04T16:13:15;12.30;;;3.25;;
59790;SDS011;47431;51.640;5.554;2022-08-04T16:15:51;6.15;;;2.63;;
59790;SDS011;47431;51.640;5.554;2022-08-04T16:20:45;6.30;;;2.70;;
59790;SDS011;47431;51.640;5.554;2022-08-04T16:25:45;7.75;;;2.50;;
59790;SDS011;47431;51.640;5.554;2022-08-04T16:30:58;9.43;;;3.38;;
59790;SDS011;47431;51.640;5.554;2022-08-04T16:33:28;12.05;;;3.03;;
59790;SDS011;47431;51.640;5.554;2022-08-04T16:35:54;8.23;;;2.58;;
59790;SDS011;47431;51.640;5.554;2022-08-04T16:38:19;7.57;;;3.50;;
59790;SDS011;47431;51.640;5.554;2022-08-04T16:40:45;9.37;;;3.17;;
59790;SDS011;47431;51.640;5.554;2022-08-04T16:43:17;13.60;;;3.70;;
59790;SDS011;47431;51.640;5.554;2022-08-04T16:46:03;7.85;;;3.13;;
59790;SDS011;47431;51.640;5.554;2022-08-04T16:48:29;8.73;;;3.13;;
59790;SDS011;47431;51.640;5.554;2022-08-04T16:51:02;6.72;;;2.50;;
59790;SDS011;47431;51.640;5.554;2022-08-04T16:53:39;7.90;;;2.38;;
59790;SDS011;47431;51.640;5.554;2022-08-04T16:56:04;7.00;;;2.58;;
59790;SDS011;47431;51.640;5.554;2022-08-04T16:58:31;6.05;;;2.35;;
59790;SDS011;47431;51.640;5.554;2022-08-04T17:00:56;4.60;;;1.83;;
59790;SDS011;47431;51.640;5.554;2022-08-04T17:03:22;3.72;;;1.83;;
59790;SDS011;47431;51.640;5.554;2022-08-04T17:05:48;7.07;;;2.45;;
59790;SDS011;47431;51.640;5.554;2022-08-04T17:08:13;5.07;;;1.70;;
59790;SDS011;47431;51.640;5.554;2022-08-04T17:13:26;6.07;;;1.70;;
59790;SDS011;47431;51.640;5.554;2022-08-04T17:15:56;5.85;;;2.15;;
59790;SDS011;47431;51.640;5.554;2022-08-04T17:18:23;5.28;;;2.42;;
59790;SDS011;47431;51.640;5.554;2022-08-04T17:20:49;12.20;;;2.25;;
59790;SDS011;47431;51.640;5.554;2022-08-04T17:23:21;7.63;;;2.10;;
59790;SDS011;47431;51.640;5.554;2022-08-04T17:25:50;7.30;;;2.25;;
59790;SDS011;47431;51.640;5.554;2022-08-04T17:28:18;6.22;;;2.08;;
59790;SDS011;47431;51.640;5.554;2022-08-04T17:30:43;5.80;;;2.08;;
59790;SDS011;47431;51.640;5.554;2022-08-04T17:33:11;8.88;;;2.55;;
59790;SDS011;47431;51.640;5.554;2022-08-04T17:35:38;4.68;;;2.17;;
59790;SDS011;47431;51.640;5.554;2022-08-04T17:38:03;6.93;;;2.03;;
59790;SDS011;47431;51.640;5.554;2022-08-04T17:40:29;6.78;;;2.50;;
59790;SDS011;47431;51.640;5.554;2022-08-04T17:43:04;6.93;;;2.83;;
59790;SDS011;47431;51.640;5.554;2022-08-04T17:45:29;12.27;;;2.25;;
59790;SDS011;47431;51.640;5.554;2022-08-04T17:47:54;4.75;;;2.22;;
59790;SDS011;47431;51.640;5.554;2022-08-04T17:50:26;8.57;;;2.60;;
59790;SDS011;47431;51.640;5.554;2022-08-04T17:52:59;7.72;;;2.25;;
59790;SDS011;47431;51.640;5.554;2022-08-04T17:55:24;5.75;;;2.47;;
59790;SDS011;47431;51.640;5.554;2022-08-04T17:58:17;4.18;;;1.83;;
59790;SDS011;47431;51.640;5.554;2022-08-04T18:00:42;7.20;;;2.47;;
59790;SDS011;47431;51.640;5.554;2022-08-04T18:03:19;7.32;;;2.28;;
59790;SDS011;47431;51.640;5.554;2022-08-04T18:05:45;6.45;;;2.72;;
59790;SDS011;47431;51.640;5.554;2022-08-04T18:08:10;6.95;;;2.58;;
59790;SDS011;47431;51.640;5.554;2022-08-04T18:10:36;5.15;;;2.30;;
59790;SDS011;47431;51.640;5.554;2022-08-04T18:13:06;5.85;;;1.83;;
59790;SDS011;47431;51.640;5.554;2022-08-04T18:15:31;7.13;;;2.03;;